UAE213 KMIA-SKBO
Flight info
| Callsign | UAE213 |
|---|---|
| Flight time | N/A |
| Altitude | 39000 |
| Route | GWAVA2 URSUS UP406 BILSI UL795 LENAX UL417 NEFTU UP525 EJA UW91 ILSEV ILSEV4E |
| Aircraft | B77W/H-SDE2E3GHIJ1J3J4J5M1P2RWXYZ/LB1D1 |
Departure
| Time | 2026-05-04 06:30 |
|---|---|
| Airport | Miami International Airport (KMIA) |
Arrival
| Time | N/A |
|---|---|
| Airport | El Dorado International Airport (SKBO) |
| Time | Latitude | Longitude | Altitude | Speed | Heading |
|---|---|---|---|---|---|
| 2026-05-04 06:13 | 25.79009 | -80.27400 | 20 ft | 0 kts | 51° |
| 2026-05-04 06:18 | 25.78995 | -80.27418 | 22 ft | 4 kts | 51° |
| 2026-05-04 06:20 | 25.79049 | -80.27514 | 23 ft | 0 kts | 177° |
| 2026-05-04 06:25 | 25.78958 | -80.28119 | 23 ft | 12 kts | 300° |
| 2026-05-04 06:25 | 25.78997 | -80.28195 | 24 ft | 12 kts | 300° |
| 2026-05-04 06:26 | 25.79044 | -80.28286 | 23 ft | 18 kts | 300° |
| 2026-05-04 06:26 | 25.79124 | -80.28432 | 20 ft | 23 kts | 308° |
| 2026-05-04 06:26 | 25.79211 | -80.28581 | 20 ft | 23 kts | 299° |
| 2026-05-04 06:26 | 25.79290 | -80.28736 | 19 ft | 23 kts | 300° |
| 2026-05-04 06:27 | 25.79606 | -80.29355 | 20 ft | 23 kts | 300° |
| 2026-05-04 06:28 | 25.79685 | -80.29509 | 20 ft | 23 kts | 300° |
| 2026-05-04 06:28 | 25.79764 | -80.29664 | 19 ft | 23 kts | 300° |
| 2026-05-04 06:28 | 25.79843 | -80.29818 | 19 ft | 23 kts | 300° |
| 2026-05-04 06:28 | 25.79922 | -80.29973 | 19 ft | 22 kts | 299° |
| 2026-05-04 06:29 | 25.79994 | -80.30106 | 19 ft | 15 kts | 311° |
| 2026-05-04 06:29 | 25.80060 | -80.30121 | 19 ft | 8 kts | 30° |
| 2026-05-04 06:29 | 25.80076 | -80.30067 | 18 ft | 8 kts | 92° |
| 2026-05-04 06:29 | 25.80079 | -80.29968 | 18 ft | 25 kts | 86° |
| 2026-05-04 06:30 | 25.80097 | -80.29552 | 19 ft | 95 kts | 88° |
| 2026-05-04 06:30 | 25.80121 | -80.28924 | 26 ft | 150 kts | 87° |
| 2026-05-04 06:30 | 25.80177 | -80.27556 | 321 ft | 190 kts | 87° |
| 2026-05-04 06:30 | 25.80201 | -80.26057 | 1076 ft | 200 kts | 100° |
| 2026-05-04 06:31 | 25.79530 | -80.24678 | 1603 ft | 216 kts | 141° |
| 2026-05-04 06:31 | 25.78285 | -80.23687 | 2109 ft | 229 kts | 143° |
| 2026-05-04 06:31 | 25.77014 | -80.22494 | 2589 ft | 249 kts | 140° |
| 2026-05-04 06:31 | 25.75704 | -80.21183 | 3398 ft | 257 kts | 140° |
| 2026-05-04 06:32 | 25.74331 | -80.19851 | 4115 ft | 265 kts | 147° |
| 2026-05-04 06:33 | 25.60944 | -80.19246 | 9499 ft | 305 kts | 159° |
| 2026-05-04 06:34 | 25.59148 | -80.18052 | 10497 ft | 296 kts | 152° |
| 2026-05-04 06:34 | 25.57370 | -80.16842 | 11337 ft | 308 kts | 154° |
| 2026-05-04 06:34 | 25.55455 | -80.15565 | 12039 ft | 332 kts | 158° |
| 2026-05-04 06:34 | 25.53265 | -80.14521 | 12222 ft | 355 kts | 160° |
| 2026-05-04 06:35 | 25.51036 | -80.13157 | 12798 ft | 373 kts | 152° |
| 2026-05-04 06:36 | 25.34258 | -80.01529 | 18408 ft | 425 kts | 155° |
| 2026-05-04 06:37 | 25.31714 | -79.99863 | 19108 ft | 431 kts | 155° |
| 2026-05-04 06:37 | 25.29107 | -79.98153 | 19771 ft | 437 kts | 154° |
| 2026-05-04 06:37 | 25.26464 | -79.96420 | 20369 ft | 446 kts | 154° |
| 2026-05-04 06:37 | 25.23804 | -79.94601 | 21039 ft | 453 kts | 153° |
| 2026-05-04 06:38 | 25.21136 | -79.92708 | 21745 ft | 458 kts | 152° |
| 2026-05-04 06:38 | 25.18453 | -79.90780 | 22448 ft | 463 kts | 152° |
| 2026-05-04 06:40 | 24.98869 | -79.76865 | 26481 ft | 492 kts | 153° |
| 2026-05-04 06:40 | 24.95973 | -79.74819 | 26982 ft | 496 kts | 153° |
| 2026-05-04 06:40 | 24.93046 | -79.72752 | 27469 ft | 501 kts | 153° |
| 2026-05-04 06:40 | 24.90096 | -79.70670 | 27973 ft | 505 kts | 153° |
| 2026-05-04 06:41 | 24.87131 | -79.68580 | 28479 ft | 508 kts | 153° |
| 2026-05-04 06:41 | 24.84133 | -79.66469 | 28957 ft | 512 kts | 153° |
| 2026-05-04 06:41 | 24.81121 | -79.64349 | 29413 ft | 515 kts | 153° |
| 2026-05-04 06:41 | 24.78092 | -79.62217 | 29854 ft | 519 kts | 154° |
| 2026-05-04 06:42 | 24.75035 | -79.60066 | 30230 ft | 522 kts | 154° |
| 2026-05-04 06:42 | 24.71976 | -79.57913 | 30641 ft | 523 kts | 154° |
| 2026-05-04 06:42 | 24.68916 | -79.55758 | 31198 ft | 520 kts | 154° |
| 2026-05-04 06:44 | 24.47859 | -79.40981 | 34639 ft | 508 kts | 154° |
| 2026-05-04 06:44 | 24.44874 | -79.38893 | 34982 ft | 509 kts | 154° |
| 2026-05-04 06:44 | 24.41887 | -79.36804 | 35317 ft | 510 kts | 154° |
| 2026-05-04 06:45 | 24.38897 | -79.34714 | 35682 ft | 509 kts | 154° |
| 2026-05-04 06:45 | 24.35911 | -79.32626 | 36070 ft | 508 kts | 154° |
| 2026-05-04 06:45 | 24.32934 | -79.30547 | 36436 ft | 508 kts | 154° |
| 2026-05-04 06:45 | 24.29952 | -79.28464 | 36781 ft | 508 kts | 154° |
| 2026-05-04 06:46 | 24.26980 | -79.26359 | 36961 ft | 512 kts | 154° |
| 2026-05-04 06:46 | 24.23988 | -79.24212 | 36998 ft | 515 kts | 154° |
| 2026-05-04 06:46 | 24.18028 | -79.19908 | 36996 ft | 509 kts | 154° |
| 2026-05-04 06:48 | 23.97129 | -79.06138 | 37003 ft | 475 kts | 177° |
| 2026-05-04 06:48 | 23.93878 | -79.05547 | 37019 ft | 475 kts | 179° |
| 2026-05-04 06:50 | 23.67281 | -79.00527 | 36990 ft | 485 kts | 177° |
| 2026-05-04 06:51 | 23.60646 | -78.99213 | 37003 ft | 484 kts | 177° |
| 2026-05-04 06:51 | 23.54018 | -78.97906 | 37011 ft | 483 kts | 177° |
| 2026-05-04 06:52 | 23.47450 | -78.96613 | 37011 ft | 483 kts | 177° |
| 2026-05-04 06:52 | 23.40836 | -78.95311 | 37010 ft | 483 kts | 177° |
| 2026-05-04 06:53 | 23.34229 | -78.94012 | 36990 ft | 483 kts | 177° |
| 2026-05-04 06:53 | 23.27623 | -78.92714 | 37011 ft | 482 kts | 177° |
| 2026-05-04 06:54 | 23.21049 | -78.91059 | 37001 ft | 494 kts | 166° |
| 2026-05-04 06:54 | 23.14878 | -78.87552 | 37009 ft | 510 kts | 150° |
| 2026-05-04 06:55 | 23.09247 | -78.82817 | 37019 ft | 513 kts | 148° |
| 2026-05-04 06:55 | 23.03638 | -78.78015 | 37011 ft | 513 kts | 148° |
| 2026-05-04 06:57 | 22.80954 | -78.59177 | 37011 ft | 514 kts | 149° |
| 2026-05-04 06:58 | 22.75279 | -78.54479 | 37012 ft | 514 kts | 149° |
| 2026-05-04 06:58 | 22.69599 | -78.49758 | 37010 ft | 514 kts | 148° |
| 2026-05-04 06:59 | 22.63926 | -78.45042 | 37004 ft | 513 kts | 148° |
| 2026-05-04 06:59 | 22.58262 | -78.40340 | 37010 ft | 513 kts | 148° |
| 2026-05-04 07:01 | 22.35696 | -78.21567 | 37007 ft | 512 kts | 148° |
| 2026-05-04 07:02 | 22.30060 | -78.16876 | 37007 ft | 511 kts | 148° |
| 2026-05-04 07:02 | 22.24422 | -78.12190 | 37008 ft | 511 kts | 148° |
| 2026-05-04 07:03 | 22.18793 | -78.07517 | 37011 ft | 511 kts | 148° |
| 2026-05-04 07:03 | 22.13160 | -78.02845 | 37013 ft | 511 kts | 148° |
| 2026-05-04 07:04 | 22.07527 | -77.98178 | 37014 ft | 511 kts | 148° |
| 2026-05-04 07:04 | 22.01927 | -77.93541 | 37016 ft | 510 kts | 148° |
| 2026-05-04 07:05 | 21.96303 | -77.88890 | 37009 ft | 509 kts | 148° |
| 2026-05-04 07:05 | 21.90475 | -77.84658 | 37010 ft | 500 kts | 158° |
| 2026-05-04 07:06 | 21.84123 | -77.81816 | 37011 ft | 489 kts | 170° |
| 2026-05-04 07:06 | 21.80846 | -77.80862 | 37024 ft | 487 kts | 171° |
| 2026-05-04 07:07 | 21.74286 | -77.79030 | 37011 ft | 487 kts | 172° |
| 2026-05-04 07:09 | 21.47960 | -77.71463 | 37012 ft | 492 kts | 171° |
| 2026-05-04 07:09 | 21.41348 | -77.69553 | 37017 ft | 492 kts | 171° |
| 2026-05-04 07:10 | 21.34728 | -77.67644 | 37034 ft | 493 kts | 171° |
| 2026-05-04 07:12 | 21.08335 | -77.60051 | 37017 ft | 489 kts | 170° |
| 2026-05-04 07:12 | 21.01763 | -77.58164 | 37008 ft | 489 kts | 170° |
| 2026-05-04 07:13 | 20.95191 | -77.56275 | 37014 ft | 489 kts | 170° |
| 2026-05-04 07:13 | 20.88624 | -77.54380 | 37002 ft | 489 kts | 170° |
| 2026-05-04 07:14 | 20.72220 | -77.49651 | 37003 ft | 490 kts | 170° |
| 2026-05-04 07:15 | 20.65636 | -77.47756 | 36996 ft | 490 kts | 170° |
| 2026-05-04 07:15 | 20.60157 | -77.46182 | 37003 ft | 490 kts | 170° |
| 2026-05-04 07:16 | 20.53509 | -77.44877 | 36999 ft | 482 kts | 180° |
| 2026-05-04 07:16 | 20.29220 | -77.45366 | 36982 ft | 479 kts | 186° |
| 2026-05-04 07:17 | 20.02566 | -77.46041 | 37007 ft | 480 kts | 186° |
| 2026-05-04 07:17 | 19.75737 | -77.46723 | 36993 ft | 482 kts | 186° |
| 2026-05-04 07:18 | 19.48827 | -77.46967 | 36957 ft | 490 kts | 177° |
| 2026-05-04 07:18 | 19.22303 | -77.39019 | 37009 ft | 495 kts | 168° |
| 2026-05-04 07:19 | 18.95798 | -77.30737 | 36966 ft | 496 kts | 168° |
| 2026-05-04 07:19 | 18.69464 | -77.22528 | 36985 ft | 497 kts | 167° |
| 2026-05-04 07:20 | 18.42918 | -77.14279 | 37006 ft | 497 kts | 167° |
| 2026-05-04 07:20 | 18.16369 | -77.06056 | 37005 ft | 497 kts | 167° |
| 2026-05-04 07:22 | 17.23601 | -76.77513 | 38479 ft | 497 kts | 167° |
| 2026-05-04 07:22 | 17.10248 | -76.73431 | 39001 ft | 503 kts | 167° |
| 2026-05-04 07:23 | 16.83358 | -76.65219 | 38879 ft | 495 kts | 167° |
| 2026-05-04 07:23 | 16.70366 | -76.61263 | 38854 ft | 481 kts | 167° |
| 2026-05-04 07:23 | 16.57605 | -76.57385 | 39024 ft | 475 kts | 167° |
| 2026-05-04 07:24 | 16.31888 | -76.49589 | 38970 ft | 497 kts | 167° |
| 2026-05-04 07:24 | 16.18564 | -76.45553 | 38785 ft | 497 kts | 166° |
| 2026-05-04 07:24 | 16.05399 | -76.41570 | 38714 ft | 487 kts | 166° |
| 2026-05-04 07:25 | 15.92544 | -76.37689 | 38877 ft | 475 kts | 166° |
| 2026-05-04 07:26 | 15.01509 | -76.10353 | 39053 ft | 484 kts | 167° |
| 2026-05-04 07:27 | 14.88395 | -76.06346 | 38910 ft | 499 kts | 166° |
| 2026-05-04 07:27 | 14.75119 | -76.02245 | 38953 ft | 494 kts | 166° |
| 2026-05-04 07:27 | 14.49303 | -75.94319 | 38930 ft | 476 kts | 166° |
| 2026-05-04 07:28 | 14.23626 | -75.86459 | 38972 ft | 490 kts | 166° |
| 2026-05-04 07:28 | 13.97248 | -75.78398 | 38915 ft | 494 kts | 166° |
| 2026-05-04 07:29 | 13.71398 | -75.70517 | 38940 ft | 476 kts | 165° |
| 2026-05-04 07:29 | 13.45643 | -75.62689 | 38976 ft | 492 kts | 165° |
| 2026-05-04 07:30 | 13.19355 | -75.54709 | 38857 ft | 485 kts | 165° |
| 2026-05-04 07:30 | 12.94016 | -75.47038 | 38909 ft | 476 kts | 166° |
| 2026-05-04 07:31 | 12.68188 | -75.39238 | 38989 ft | 491 kts | 165° |
| 2026-05-04 07:33 | 11.77601 | -75.11995 | 38854 ft | 482 kts | 165° |
| 2026-05-04 07:33 | 11.64876 | -75.08186 | 38875 ft | 473 kts | 165° |
| 2026-05-04 07:33 | 11.39421 | -75.01581 | 38905 ft | 477 kts | 166° |
| 2026-05-04 07:34 | 11.13402 | -74.94806 | 38857 ft | 481 kts | 166° |
| 2026-05-04 07:34 | 11.00575 | -74.91472 | 38860 ft | 469 kts | 166° |
| 2026-05-04 07:34 | 10.88168 | -74.88250 | 38883 ft | 464 kts | 166° |
| 2026-05-04 07:35 | 10.62929 | -74.81315 | 38922 ft | 477 kts | 164° |
| 2026-05-04 07:35 | 10.37239 | -74.74030 | 38851 ft | 474 kts | 164° |
| 2026-05-04 07:36 | 10.12623 | -74.67071 | 38885 ft | 460 kts | 165° |
| 2026-05-04 07:38 | 9.90634 | -74.60864 | 38889 ft | 472 kts | 165° |
| 2026-05-04 07:38 | 9.87469 | -74.59971 | 38885 ft | 472 kts | 165° |
| 2026-05-04 07:38 | 9.81144 | -74.58188 | 38866 ft | 472 kts | 165° |
| 2026-05-04 07:39 | 9.74838 | -74.56411 | 38887 ft | 474 kts | 165° |
| 2026-05-04 07:39 | 9.68462 | -74.54614 | 38897 ft | 477 kts | 165° |
| 2026-05-04 07:40 | 9.62048 | -74.52808 | 38889 ft | 479 kts | 165° |
| 2026-05-04 07:40 | 9.55614 | -74.50997 | 38882 ft | 480 kts | 165° |
| 2026-05-04 07:41 | 9.49169 | -74.49183 | 38883 ft | 481 kts | 165° |
| 2026-05-04 07:41 | 9.42733 | -74.47373 | 38886 ft | 479 kts | 165° |
| 2026-05-04 07:42 | 9.36325 | -74.45571 | 38881 ft | 477 kts | 165° |
| 2026-05-04 07:42 | 9.29946 | -74.43778 | 38880 ft | 474 kts | 165° |
| 2026-05-04 07:43 | 9.23595 | -74.41993 | 38882 ft | 472 kts | 165° |
| 2026-05-04 07:43 | 9.17270 | -74.40216 | 38881 ft | 471 kts | 165° |
| 2026-05-04 07:44 | 9.10953 | -74.38443 | 38888 ft | 471 kts | 165° |
| 2026-05-04 07:44 | 9.04635 | -74.36670 | 38884 ft | 471 kts | 165° |
| 2026-05-04 07:45 | 8.98304 | -74.34894 | 38891 ft | 473 kts | 165° |
| 2026-05-04 07:45 | 8.92001 | -74.33126 | 38889 ft | 474 kts | 165° |
| 2026-05-04 07:46 | 8.85638 | -74.31342 | 38892 ft | 475 kts | 165° |
| 2026-05-04 07:46 | 8.79219 | -74.29543 | 38881 ft | 476 kts | 165° |
| 2026-05-04 07:47 | 8.72847 | -74.27758 | 38896 ft | 475 kts | 165° |
| 2026-05-04 07:49 | 8.47425 | -74.20642 | 38901 ft | 474 kts | 165° |
| 2026-05-04 07:49 | 8.41071 | -74.18865 | 38918 ft | 474 kts | 165° |
| 2026-05-04 07:50 | 8.34719 | -74.17089 | 38904 ft | 474 kts | 165° |
| 2026-05-04 07:50 | 8.28357 | -74.15311 | 38920 ft | 475 kts | 165° |
| 2026-05-04 07:51 | 8.21987 | -74.13531 | 38930 ft | 476 kts | 165° |
| 2026-05-04 07:51 | 8.15599 | -74.11747 | 38941 ft | 477 kts | 165° |
| 2026-05-04 07:52 | 8.09200 | -74.09960 | 38937 ft | 478 kts | 165° |
| 2026-05-04 07:52 | 8.02792 | -74.08171 | 38934 ft | 478 kts | 165° |
| 2026-05-04 07:54 | 7.77062 | -74.01051 | 38922 ft | 480 kts | 164° |
| 2026-05-04 07:55 | 7.70625 | -73.99273 | 38929 ft | 479 kts | 164° |
| 2026-05-04 07:55 | 7.64192 | -73.97497 | 38921 ft | 479 kts | 164° |
| 2026-05-04 07:56 | 7.57767 | -73.95724 | 38917 ft | 479 kts | 164° |
| 2026-05-04 07:56 | 7.51380 | -73.93961 | 38913 ft | 479 kts | 164° |
| 2026-05-04 07:57 | 7.44953 | -73.92189 | 38903 ft | 479 kts | 164° |
| 2026-05-04 07:57 | 7.38525 | -73.90416 | 38897 ft | 479 kts | 164° |
| 2026-05-04 07:58 | 7.32096 | -73.88644 | 38905 ft | 479 kts | 164° |
| 2026-05-04 07:58 | 7.26708 | -73.87158 | 38900 ft | 479 kts | 164° |
| 2026-05-04 07:59 | 7.20290 | -73.85390 | 38900 ft | 480 kts | 164° |
| 2026-05-04 07:59 | 7.13979 | -73.83651 | 38903 ft | 480 kts | 164° |
| 2026-05-04 08:00 | 7.07524 | -73.81887 | 38900 ft | 480 kts | 166° |
| 2026-05-04 08:02 | 6.81143 | -73.84635 | 38916 ft | 482 kts | 190° |
| 2026-05-04 08:02 | 6.74549 | -73.85867 | 38917 ft | 482 kts | 190° |
| 2026-05-04 08:03 | 6.67949 | -73.87087 | 38933 ft | 482 kts | 190° |
| 2026-05-04 08:03 | 6.61345 | -73.88310 | 38941 ft | 482 kts | 190° |
| 2026-05-04 08:04 | 6.54744 | -73.89534 | 38956 ft | 482 kts | 190° |
| 2026-05-04 08:04 | 6.48131 | -73.90760 | 38961 ft | 483 kts | 190° |
| 2026-05-04 08:05 | 6.41514 | -73.91993 | 38990 ft | 483 kts | 190° |
| 2026-05-04 08:05 | 6.34904 | -73.93239 | 38955 ft | 485 kts | 190° |
| 2026-05-04 08:06 | 6.31548 | -73.93871 | 38171 ft | 496 kts | 190° |
| 2026-05-04 08:06 | 6.28163 | -73.94508 | 37505 ft | 494 kts | 190° |
| 2026-05-04 08:06 | 6.24835 | -73.95134 | 36765 ft | 493 kts | 190° |
| 2026-05-04 08:06 | 6.21465 | -73.95768 | 36020 ft | 492 kts | 190° |
| 2026-05-04 08:08 | 5.98351 | -74.00112 | 31741 ft | 469 kts | 190° |
| 2026-05-04 08:08 | 5.95155 | -74.00719 | 31186 ft | 466 kts | 190° |
| 2026-05-04 08:10 | 5.70336 | -74.05431 | 26715 ft | 442 kts | 189° |
| 2026-05-04 08:11 | 5.67322 | -74.06002 | 26179 ft | 439 kts | 189° |
| 2026-05-04 08:11 | 5.61336 | -74.07137 | 25088 ft | 436 kts | 189° |
| 2026-05-04 08:11 | 5.58359 | -74.07701 | 24528 ft | 435 kts | 189° |
| 2026-05-04 08:12 | 5.55393 | -74.08264 | 24031 ft | 434 kts | 189° |
| 2026-05-04 08:12 | 5.52472 | -74.08817 | 23460 ft | 433 kts | 189° |
| 2026-05-04 08:12 | 5.49517 | -74.09377 | 22870 ft | 431 kts | 189° |
| 2026-05-04 08:12 | 5.46584 | -74.09933 | 22353 ft | 427 kts | 189° |
| 2026-05-04 08:13 | 5.43725 | -74.10536 | 22150 ft | 411 kts | 196° |
| 2026-05-04 08:13 | 5.41181 | -74.11770 | 21919 ft | 406 kts | 214° |
| 2026-05-04 08:13 | 5.39138 | -74.13702 | 21456 ft | 401 kts | 228° |
| 2026-05-04 08:13 | 5.37331 | -74.15822 | 21039 ft | 399 kts | 228° |
| 2026-05-04 08:14 | 5.35521 | -74.17926 | 20598 ft | 398 kts | 228° |
| 2026-05-04 08:14 | 5.33704 | -74.20014 | 20145 ft | 397 kts | 227° |
| 2026-05-04 08:14 | 5.31882 | -74.22092 | 19666 ft | 396 kts | 227° |
| 2026-05-04 08:16 | 5.20671 | -74.36238 | 18065 ft | 352 kts | 207° |
| 2026-05-04 08:16 | 5.18441 | -74.37221 | 17626 ft | 351 kts | 198° |
| 2026-05-04 08:16 | 5.16148 | -74.37986 | 17024 ft | 348 kts | 192° |
| 2026-05-04 08:17 | 5.13775 | -74.38411 | 16550 ft | 344 kts | 186° |
| 2026-05-04 08:17 | 5.11426 | -74.38732 | 16296 ft | 333 kts | 185° |
| 2026-05-04 08:17 | 5.09168 | -74.39034 | 15874 ft | 322 kts | 185° |
| 2026-05-04 08:17 | 5.06961 | -74.39334 | 15356 ft | 321 kts | 185° |
| 2026-05-04 08:19 | 4.91871 | -74.40887 | 12961 ft | 300 kts | 155° |
| 2026-05-04 08:19 | 4.90143 | -74.39814 | 12619 ft | 295 kts | 137° |
| 2026-05-04 08:20 | 4.88819 | -74.38263 | 12283 ft | 292 kts | 124° |
| 2026-05-04 08:20 | 4.87666 | -74.36592 | 11945 ft | 290 kts | 125° |
| 2026-05-04 08:20 | 4.86484 | -74.34910 | 12011 ft | 298 kts | 124° |
| 2026-05-04 08:20 | 4.85291 | -74.33228 | 11952 ft | 291 kts | 125° |
| 2026-05-04 08:21 | 4.84085 | -74.31665 | 11918 ft | 276 kts | 134° |
| 2026-05-04 08:21 | 4.82666 | -74.30421 | 11636 ft | 266 kts | 140° |
| 2026-05-04 08:21 | 4.81255 | -74.29294 | 11380 ft | 253 kts | 140° |
| 2026-05-04 08:21 | 4.79919 | -74.28201 | 11065 ft | 242 kts | 139° |
| 2026-05-04 08:22 | 4.78672 | -74.27122 | 10777 ft | 230 kts | 130° |
| 2026-05-04 08:22 | 4.77799 | -74.25837 | 10582 ft | 218 kts | 123° |
| 2026-05-04 08:24 | 4.72256 | -74.18507 | 8804 ft | 168 kts | 125° |
| 2026-05-04 08:24 | 4.71553 | -74.17575 | 8542 ft | 168 kts | 124° |
| 2026-05-04 08:24 | 4.70861 | -74.16650 | 8385 ft | 163 kts | 123° |
| 2026-05-04 08:24 | 4.70399 | -74.15751 | 8371 ft | 131 kts | 113° |